sensor_id;sensor_type;location;lat;lon;timestamp;pressure;altitude;pressure_sealevel;temperature;humidity
59487;BME280;45298;54.918;73.504;2024-03-02T00:01:39;101116.22;;;-5.52;90.10
59487;BME280;45298;54.918;73.504;2024-03-02T00:04:08;101140.69;;;-5.36;90.67
59487;BME280;45298;54.918;73.504;2024-03-02T00:06:37;101130.28;;;-5.37;90.39
59487;BME280;45298;54.918;73.504;2024-03-02T00:09:09;101145.03;;;-5.33;90.66
59487;BME280;45298;54.918;73.504;2024-03-02T00:11:41;101146.03;;;-5.28;90.65
59487;BME280;45298;54.918;73.504;2024-03-02T00:14:10;101137.34;;;-5.30;90.26
59487;BME280;45298;54.918;73.504;2024-03-02T00:16:39;101136.28;;;-5.41;90.31
59487;BME280;45298;54.918;73.504;2024-03-02T00:19:09;101158.19;;;-5.24;89.86
59487;BME280;45298;54.918;73.504;2024-03-02T00:21:38;101146.03;;;-5.28;90.09
59487;BME280;45298;54.918;73.504;2024-03-02T00:24:32;101153.00;;;-5.24;90.36
59487;BME280;45298;54.918;73.504;2024-03-02T00:27:05;101152.97;;;-5.25;90.24
59487;BME280;45298;54.918;73.504;2024-03-02T00:29:36;101154.69;;;-5.26;89.89
59487;BME280;45298;54.918;73.504;2024-03-02T00:32:12;101160.63;;;-5.30;90.45
59487;BME280;45298;54.918;73.504;2024-03-02T00:34:42;101164.97;;;-5.29;90.68
59487;BME280;45298;54.918;73.504;2024-03-02T00:37:11;101162.31;;;-5.32;90.24
59487;BME280;45298;54.918;73.504;2024-03-02T00:39:40;101163.22;;;-5.30;89.89
59487;BME280;45298;54.918;73.504;2024-03-02T00:42:11;101174.44;;;-5.29;90.13
59487;BME280;45298;54.918;73.504;2024-03-02T00:44:40;101166.56;;;-5.34;90.68
59487;BME280;45298;54.918;73.504;2024-03-02T00:47:09;101170.06;;;-5.32;90.32
59487;BME280;45298;54.918;73.504;2024-03-02T00:49:38;101172.63;;;-5.34;89.97
59487;BME280;45298;54.918;73.504;2024-03-02T00:52:08;101162.16;;;-5.40;89.67
59487;BME280;45298;54.918;73.504;2024-03-02T00:54:37;101178.59;;;-5.36;90.40
59487;BME280;45298;54.918;73.504;2024-03-02T00:57:10;101176.81;;;-5.39;90.08
59487;BME280;45298;54.918;73.504;2024-03-02T00:59:40;101174.31;;;-5.36;90.35
59487;BME280;45298;54.918;73.504;2024-03-02T01:02:09;101179.41;;;-5.39;90.50
59487;BME280;45298;54.918;73.504;2024-03-02T01:04:38;101179.41;;;-5.39;89.52
59487;BME280;45298;54.918;73.504;2024-03-02T01:07:07;101183.75;;;-5.38;90.40
59487;BME280;45298;54.918;73.504;2024-03-02T01:09:36;101174.97;;;-5.44;89.91
59487;BME280;45298;54.918;73.504;2024-03-02T01:12:05;101182.84;;;-5.40;89.50
59487;BME280;45298;54.918;73.504;2024-03-02T01:14:34;101185.44;;;-5.38;90.06
59487;BME280;45298;54.918;73.504;2024-03-02T01:17:03;101194.09;;;-5.38;90.35
59487;BME280;45298;54.918;73.504;2024-03-02T01:19:33;101198.34;;;-5.40;89.75
59487;BME280;45298;54.918;73.504;2024-03-02T01:22:02;101179.25;;;-5.47;90.25
59487;BME280;45298;54.918;73.504;2024-03-02T01:24:31;101198.34;;;-5.40;89.27
59487;BME280;45298;54.918;73.504;2024-03-02T01:27:00;101198.38;;;-5.38;89.93
59487;BME280;45298;54.918;73.504;2024-03-02T01:29:28;101202.59;;;-5.43;89.14
59487;BME280;45298;54.918;73.504;2024-03-02T01:31:59;101212.16;;;-5.39;89.37
59487;BME280;45298;54.918;73.504;2024-03-02T01:34:28;101200.06;;;-5.40;89.95
59487;BME280;45298;54.918;73.504;2024-03-02T01:36:56;101200.06;;;-5.40;89.32
59487;BME280;45298;54.918;73.504;2024-03-02T01:39:25;101206.94;;;-5.41;89.91
59487;BME280;45298;54.918;73.504;2024-03-02T01:41:55;101209.59;;;-5.39;89.41
59487;BME280;45298;54.918;73.504;2024-03-02T01:44:24;101213.13;;;-5.34;89.71
59487;BME280;45298;54.918;73.504;2024-03-02T01:46:53;101201.84;;;-5.38;89.31
59487;BME280;45298;54.918;73.504;2024-03-02T01:49:22;101221.03;;;-5.28;89.48
59487;BME280;45298;54.918;73.504;2024-03-02T01:51:51;101207.94;;;-5.34;89.20
59487;BME280;45298;54.918;73.504;2024-03-02T01:54:20;101230.63;;;-5.22;88.78
59487;BME280;45298;54.918;73.504;2024-03-02T01:56:53;101228.13;;;-5.18;89.90
59487;BME280;45298;54.918;73.504;2024-03-02T01:59:22;101232.53;;;-5.13;89.33
59487;BME280;45298;54.918;73.504;2024-03-02T02:01:51;101229.09;;;-5.14;89.54
59487;BME280;45298;54.918;73.504;2024-03-02T02:04:20;101239.59;;;-5.06;89.62
59487;BME280;45298;54.918;73.504;2024-03-02T02:06:55;101244.84;;;-5.03;89.48
59487;BME280;45298;54.918;73.504;2024-03-02T02:09:25;101248.34;;;-5.01;89.96
59487;BME280;45298;54.918;73.504;2024-03-02T02:11:54;101246.59;;;-5.02;89.38
59487;BME280;45298;54.918;73.504;2024-03-02T02:14:23;101250.09;;;-4.98;89.27
59487;BME280;45298;54.918;73.504;2024-03-02T02:16:51;101265.78;;;-4.91;89.03
59487;BME280;45298;54.918;73.504;2024-03-02T02:19:21;101252.00;;;-4.90;89.65
59487;BME280;45298;54.918;73.504;2024-03-02T02:21:49;101226.72;;;-5.03;89.48
59487;BME280;45298;54.918;73.504;2024-03-02T02:24:18;101264.25;;;-4.82;89.06
59487;BME280;45298;54.918;73.504;2024-03-02T02:26:47;101286.03;;;-4.73;88.98
59487;BME280;45298;54.918;73.504;2024-03-02T02:29:16;101267.09;;;-4.70;89.17
59487;BME280;45298;54.918;73.504;2024-03-02T02:31:45;101268.22;;;-4.57;88.67
59487;BME280;45298;54.918;73.504;2024-03-02T02:34:14;101254.13;;;-4.72;88.42
59487;BME280;45298;54.918;73.504;2024-03-02T02:36:44;101257.81;;;-4.59;88.59
59487;BME280;45298;54.918;73.504;2024-03-02T02:39:15;101272.63;;;-4.50;87.87
59487;BME280;45298;54.918;73.504;2024-03-02T02:41:45;101274.53;;;-4.43;87.79
59487;BME280;45298;54.918;73.504;2024-03-02T02:44:14;101285.09;;;-4.32;87.41
59487;BME280;45298;54.918;73.504;2024-03-02T02:46:43;101287.63;;;-4.35;87.39
59487;BME280;45298;54.918;73.504;2024-03-02T02:49:12;101283.13;;;-4.44;87.45
59487;BME280;45298;54.918;73.504;2024-03-02T02:51:40;101282.28;;;-4.43;87.23
59487;BME280;45298;54.918;73.504;2024-03-02T02:54:09;101284.03;;;-4.43;87.23
59487;BME280;45298;54.918;73.504;2024-03-02T02:56:38;101289.50;;;-4.28;86.63
59487;BME280;45298;54.918;73.504;2024-03-02T02:59:07;101298.03;;;-4.32;86.62
59487;BME280;45298;54.918;73.504;2024-03-02T03:01:36;101290.97;;;-4.39;86.56
59487;BME280;45298;54.918;73.504;2024-03-02T03:04:05;101297.97;;;-4.36;86.33
59487;BME280;45298;54.918;73.504;2024-03-02T03:06:36;101308.16;;;-4.44;86.47
59487;BME280;45298;54.918;73.504;2024-03-02T03:09:08;101311.69;;;-4.39;85.86
59487;BME280;45298;54.918;73.504;2024-03-02T03:11:39;101313.78;;;-4.21;85.58
59487;BME280;45298;54.918;73.504;2024-03-02T03:14:08;101319.13;;;-4.13;85.00
59487;BME280;45298;54.918;73.504;2024-03-02T03:16:37;101309.44;;;-4.23;85.13
59487;BME280;45298;54.918;73.504;2024-03-02T03:19:06;101335.38;;;-4.20;84.99
59487;BME280;45298;54.918;73.504;2024-03-02T03:21:34;101328.22;;;-3.88;84.61
59487;BME280;45298;54.918;73.504;2024-03-02T03:24:04;101344.53;;;-3.43;83.61
59487;BME280;45298;54.918;73.504;2024-03-02T03:26:35;101340.81;;;-3.04;82.46
59487;BME280;45298;54.918;73.504;2024-03-02T03:29:05;101329.19;;;-2.70;81.94
59487;BME280;45298;54.918;73.504;2024-03-02T03:31:34;101345.72;;;-2.62;80.34
59487;BME280;45298;54.918;73.504;2024-03-02T03:34:04;101346.31;;;-2.82;80.43
59487;BME280;45298;54.918;73.504;2024-03-02T03:36:33;101357.66;;;-2.78;81.12
59487;BME280;45298;54.918;73.504;2024-03-02T03:39:02;101348.16;;;-2.76;80.36
59487;BME280;45298;54.918;73.504;2024-03-02T03:41:50;101350.06;;;-2.63;80.38
59487;BME280;45298;54.918;73.504;2024-03-02T03:44:19;101351.09;;;-2.48;78.93
59487;BME280;45298;54.918;73.504;2024-03-02T03:46:48;101341.75;;;-2.35;78.04
59487;BME280;45298;54.918;73.504;2024-03-02T03:49:16;101326.81;;;-2.52;78.34
59487;BME280;45298;54.918;73.504;2024-03-02T03:51:46;101351.06;;;-2.51;78.50
59487;BME280;45298;54.918;73.504;2024-03-02T03:54:15;101360.47;;;-2.61;78.23
59487;BME280;45298;54.918;73.504;2024-03-02T03:56:44;101359.66;;;-2.57;78.64
59487;BME280;45298;54.918;73.504;2024-03-02T03:59:12;101365.59;;;-2.64;78.61
59487;BME280;45298;54.918;73.504;2024-03-02T04:01:41;101387.28;;;-2.65;78.53
59487;BME280;45298;54.918;73.504;2024-03-02T04:04:10;101329.97;;;-2.76;78.73
59487;BME280;45298;54.918;73.504;2024-03-02T04:06:39;101383.19;;;-2.45;78.75
59487;BME280;45298;54.918;73.504;2024-03-02T04:09:27;101396.16;;;-2.48;78.26
59487;BME280;45298;54.918;73.504;2024-03-02T04:11:56;101392.69;;;-2.48;78.38
59487;BME280;45298;54.918;73.504;2024-03-02T04:14:24;101403.00;;;-2.53;77.99
59487;BME280;45298;54.918;73.504;2024-03-02T04:16:53;101386.25;;;-2.75;78.19
59487;BME280;45298;54.918;73.504;2024-03-02T04:19:22;101401.81;;;-2.77;78.17
59487;BME280;45298;54.918;73.504;2024-03-02T04:21:51;101393.84;;;-2.89;78.66
59487;BME280;45298;54.918;73.504;2024-03-02T04:24:19;101406.72;;;-2.94;78.38
59487;BME280;45298;54.918;73.504;2024-03-02T04:26:48;101404.13;;;-2.95;78.43
59487;BME280;45298;54.918;73.504;2024-03-02T04:29:17;101405.63;;;-3.10;78.64
59487;BME280;45298;54.918;73.504;2024-03-02T04:31:46;101414.38;;;-3.05;78.65
59487;BME280;45298;54.918;73.504;2024-03-02T04:34:17;101418.50;;;-3.16;78.77
59487;BME280;45298;54.918;73.504;2024-03-02T04:36:45;101412.34;;;-3.24;78.38
59487;BME280;45298;54.918;73.504;2024-03-02T04:39:14;101416.63;;;-3.25;79.08
59487;BME280;45298;54.918;73.504;2024-03-02T04:41:43;101418.13;;;-3.39;79.22
59487;BME280;45298;54.918;73.504;2024-03-02T04:44:12;101430.25;;;-3.38;79.13
59487;BME280;45298;54.918;73.504;2024-03-02T04:46:41;101421.56;;;-3.40;79.28
59487;BME280;45298;54.918;73.504;2024-03-02T04:49:12;101428.44;;;-3.42;79.61
59487;BME280;45298;54.918;73.504;2024-03-02T04:51:41;101431.94;;;-3.39;79.38
59487;BME280;45298;54.918;73.504;2024-03-02T04:54:13;101425.06;;;-3.37;79.70
59487;BME280;45298;54.918;73.504;2024-03-02T04:56:42;101432.78;;;-3.40;79.42
59487;BME280;45298;54.918;73.504;2024-03-02T04:59:18;101439.47;;;-3.54;79.10
59487;BME280;45298;54.918;73.504;2024-03-02T05:01:47;101422.16;;;-3.55;78.82
59487;BME280;45298;54.918;73.504;2024-03-02T05:04:16;101432.72;;;-3.46;79.30
59487;BME280;45298;54.918;73.504;2024-03-02T05:06:45;101440.56;;;-3.40;78.90
59487;BME280;45298;54.918;73.504;2024-03-02T05:09:21;101436.22;;;-3.41;79.24
59487;BME280;45298;54.918;73.504;2024-03-02T05:11:49;101441.41;;;-3.44;79.22
59487;BME280;45298;54.918;73.504;2024-03-02T05:14:37;101432.72;;;-3.44;78.82
59487;BME280;45298;54.918;73.504;2024-03-02T05:17:09;101434.66;;;-3.32;79.36
59487;BME280;45298;54.918;73.504;2024-03-02T05:19:57;101434.91;;;-3.19;78.23
59487;BME280;45298;54.918;73.504;2024-03-02T05:22:26;101442.06;;;-3.04;78.48
59487;BME280;45298;54.918;73.504;2024-03-02T05:24:58;101428.34;;;-2.96;77.37
59487;BME280;45298;54.918;73.504;2024-03-02T05:27:28;101426.97;;;-2.72;77.54
59487;BME280;45298;54.918;73.504;2024-03-02T05:29:57;101434.19;;;-2.51;76.77
59487;BME280;45298;54.918;73.504;2024-03-02T05:32:27;101446.66;;;-2.29;76.40
59487;BME280;45298;54.918;73.504;2024-03-02T05:34:58;101428.53;;;-2.22;76.42
59487;BME280;45298;54.918;73.504;2024-03-02T05:37:30;101435.72;;;-2.03;76.27
59487;BME280;45298;54.918;73.504;2024-03-02T05:39:59;101446.25;;;-1.92;75.55
59487;BME280;45298;54.918;73.504;2024-03-02T05:42:28;101449.06;;;-1.73;75.67
59487;BME280;45298;54.918;73.504;2024-03-02T05:44:57;101454.06;;;-1.92;74.86
59487;BME280;45298;54.918;73.504;2024-03-02T05:47:26;101447.97;;;-1.92;74.90
59487;BME280;45298;54.918;73.504;2024-03-02T05:49:56;101455.13;;;-1.73;74.08
59487;BME280;45298;54.918;73.504;2024-03-02T05:52:24;101483.06;;;-1.59;74.69
59487;BME280;45298;54.918;73.504;2024-03-02T05:54:53;101470.03;;;-1.58;73.61
59487;BME280;45298;54.918;73.504;2024-03-02T05:57:24;101466.78;;;-1.40;73.36
59487;BME280;45298;54.918;73.504;2024-03-02T06:00:22;101458.22;;;-1.28;72.94
59487;BME280;45298;54.918;73.504;2024-03-02T06:02:51;101456.53;;;-1.23;72.66
59487;BME280;45298;54.918;73.504;2024-03-02T06:05:21;101471.97;;;-1.41;72.26
59487;BME280;45298;54.918;73.504;2024-03-02T06:08:08;101478.00;;;-1.44;71.85
59487;BME280;45298;54.918;73.504;2024-03-02T06:10:37;101471.84;;;-1.54;72.37
59487;BME280;45298;54.918;73.504;2024-03-02T06:13:06;101477.84;;;-1.59;72.44
59487;BME280;45298;54.918;73.504;2024-03-02T06:15:35;101474.44;;;-1.52;72.38
59487;BME280;45298;54.918;73.504;2024-03-02T06:18:05;101477.31;;;-1.29;71.34
59487;BME280;45298;54.918;73.504;2024-03-02T06:20:36;101476.38;;;-1.34;71.63
59487;BME280;45298;54.918;73.504;2024-03-02T06:23:06;101482.41;;;-1.38;71.24
59487;BME280;45298;54.918;73.504;2024-03-02T06:25:34;101475.47;;;-1.38;70.97
59487;BME280;45298;54.918;73.504;2024-03-02T06:28:03;101494.69;;;-1.25;71.79
59487;BME280;45298;54.918;73.504;2024-03-02T06:30:33;101499.88;;;-1.28;71.16
59487;BME280;45298;54.918;73.504;2024-03-02T06:33:02;101484.19;;;-1.34;70.58
59487;BME280;45298;54.918;73.504;2024-03-02T06:35:32;101498.88;;;-1.39;70.36
59487;BME280;45298;54.918;73.504;2024-03-02T06:38:19;101491.34;;;-1.11;70.40
59487;BME280;45298;54.918;73.504;2024-03-02T06:40:48;101496.63;;;-1.02;69.86
59487;BME280;45298;54.918;73.504;2024-03-02T06:43:17;101500.84;;;-1.15;69.67
59487;BME280;45298;54.918;73.504;2024-03-02T06:45:46;101510.38;;;-1.18;69.34
59487;BME280;45298;54.918;73.504;2024-03-02T06:48:16;101500.59;;;-1.41;68.82
59487;BME280;45298;54.918;73.504;2024-03-02T06:50:49;101512.56;;;-1.57;68.16
59487;BME280;45298;54.918;73.504;2024-03-02T06:53:18;101517.56;;;-1.74;68.47
59487;BME280;45298;54.918;73.504;2024-03-02T06:55:47;101504.66;;;-1.65;67.93
59487;BME280;45298;54.918;73.504;2024-03-02T06:58:16;101509.16;;;-1.50;67.85
59487;BME280;45298;54.918;73.504;2024-03-02T07:00:45;101504.78;;;-1.54;67.31
59487;BME280;45298;54.918;73.504;2024-03-02T07:03:14;101512.66;;;-1.48;67.18
59487;BME280;45298;54.918;73.504;2024-03-02T07:05:42;101513.47;;;-1.54;66.45
59487;BME280;45298;54.918;73.504;2024-03-02T07:08:11;101486.44;;;-1.67;66.79
59487;BME280;45298;54.918;73.504;2024-03-02T07:10:40;101511.03;;;-1.40;66.28
59487;BME280;45298;54.918;73.504;2024-03-02T07:13:27;101485.94;;;-1.31;66.11
59487;BME280;45298;54.918;73.504;2024-03-02T07:15:56;101516.41;;;-1.24;65.25
59487;BME280;45298;54.918;73.504;2024-03-02T07:18:31;101509.13;;;-1.53;64.74
59487;BME280;45298;54.918;73.504;2024-03-02T07:21:01;101510.91;;;-1.49;65.49
59487;BME280;45298;54.918;73.504;2024-03-02T07:23:34;101514.38;;;-1.50;64.26
59487;BME280;45298;54.918;73.504;2024-03-02T07:26:03;101516.16;;;-1.44;64.58
59487;BME280;45298;54.918;73.504;2024-03-02T07:28:35;101525.78;;;-1.39;64.51
59487;BME280;45298;54.918;73.504;2024-03-02T07:31:22;101526.06;;;-1.11;64.05
59487;BME280;45298;54.918;73.504;2024-03-02T07:33:51;101517.50;;;-0.99;63.68
59487;BME280;45298;54.918;73.504;2024-03-02T07:36:20;101521.25;;;-0.69;63.60
59487;BME280;45298;54.918;73.504;2024-03-02T07:38:49;101524.66;;;-0.76;63.20
59487;BME280;45298;54.918;73.504;2024-03-02T07:41:19;101528.78;;;-1.00;63.34
59487;BME280;45298;54.918;73.504;2024-03-02T07:43:47;101532.91;;;-1.20;63.17
59487;BME280;45298;54.918;73.504;2024-03-02T07:46:17;101534.50;;;-1.35;62.56
59487;BME280;45298;54.918;73.504;2024-03-02T07:48:46;101532.72;;;-1.41;62.98
59487;BME280;45298;54.918;73.504;2024-03-02T07:51:16;101548.09;;;-1.58;62.90
59487;BME280;45298;54.918;73.504;2024-03-02T07:53:45;101530.53;;;-1.76;62.65
59487;BME280;45298;54.918;73.504;2024-03-02T07:56:14;101524.38;;;-1.83;62.80
59487;BME280;45298;54.918;73.504;2024-03-02T07:58:50;101527.81;;;-1.84;62.81
59487;BME280;45298;54.918;73.504;2024-03-02T08:01:19;101527.66;;;-1.98;62.63
59487;BME280;45298;54.918;73.504;2024-03-02T08:03:49;101518.69;;;-2.20;62.28
59487;BME280;45298;54.918;73.504;2024-03-02T08:06:22;101532.69;;;-2.10;62.32
59487;BME280;45298;54.918;73.504;2024-03-02T08:08:51;101552.41;;;-2.23;62.50
59487;BME280;45298;54.918;73.504;2024-03-02T08:11:20;101552.28;;;-2.32;62.27
59487;BME280;45298;54.918;73.504;2024-03-02T08:13:50;101547.16;;;-2.29;62.21
59487;BME280;45298;54.918;73.504;2024-03-02T08:16:22;101543.66;;;-2.31;61.65
59487;BME280;45298;54.918;73.504;2024-03-02T08:19:10;101534.34;;;-2.15;61.46
59487;BME280;45298;54.918;73.504;2024-03-02T08:21:39;101538.56;;;-2.23;61.80
59487;BME280;45298;54.918;73.504;2024-03-02T08:24:08;101532.63;;;-2.15;61.78
59487;BME280;45298;54.918;73.504;2024-03-02T08:26:39;101531.88;;;-2.07;61.81
59487;BME280;45298;54.918;73.504;2024-03-02T08:29:08;101533.06;;;-1.80;62.16
59487;BME280;45298;54.918;73.504;2024-03-02T08:31:37;101547.25;;;-1.57;61.65
59487;BME280;45298;54.918;73.504;2024-03-02T08:34:09;101536.63;;;-1.75;61.92
59487;BME280;45298;54.918;73.504;2024-03-02T08:36:38;101543.53;;;-1.77;62.12
59487;BME280;45298;54.918;73.504;2024-03-02T08:39:09;101551.47;;;-1.68;62.14
59487;BME280;45298;54.918;73.504;2024-03-02T08:41:47;101540.94;;;-1.77;61.62
59487;BME280;45298;54.918;73.504;2024-03-02T08:44:17;101513.59;;;-2.12;62.13
59487;BME280;45298;54.918;73.504;2024-03-02T08:46:46;101538.44;;;-2.31;62.14
59487;BME280;45298;54.918;73.504;2024-03-02T08:49:15;101531.59;;;-2.26;62.07
59487;BME280;45298;54.918;73.504;2024-03-02T08:51:44;101545.56;;;-2.18;61.83
59487;BME280;45298;54.918;73.504;2024-03-02T08:54:13;101545.78;;;-2.02;62.18
59487;BME280;45298;54.918;73.504;2024-03-02T08:56:42;101548.22;;;-2.15;62.31
59487;BME280;45298;54.918;73.504;2024-03-02T08:59:11;101544.66;;;-2.21;62.35
59487;BME280;45298;54.918;73.504;2024-03-02T09:01:40;101545.34;;;-2.33;62.43
59487;BME280;45298;54.918;73.504;2024-03-02T09:04:10;101547.00;;;-2.38;62.45
59487;BME280;45298;54.918;73.504;2024-03-02T09:06:39;101549.41;;;-2.49;63.12
59487;BME280;45298;54.918;73.504;2024-03-02T09:09:08;101540.34;;;-2.76;62.40
59487;BME280;45298;54.918;73.504;2024-03-02T09:11:36;101501.63;;;-3.11;63.43
59487;BME280;45298;54.918;73.504;2024-03-02T09:14:06;101568.66;;;-2.90;63.12
59487;BME280;45298;54.918;73.504;2024-03-02T09:16:34;101553.41;;;-3.19;63.65
59487;BME280;45298;54.918;73.504;2024-03-02T09:19:03;101547.69;;;-3.47;64.12
59487;BME280;45298;54.918;73.504;2024-03-02T09:21:32;101552.91;;;-3.45;64.01
59487;BME280;45298;54.918;73.504;2024-03-02T09:24:01;101540.63;;;-3.54;63.99
59487;BME280;45298;54.918;73.504;2024-03-02T09:26:32;101546.41;;;-3.68;64.38
59487;BME280;45298;54.918;73.504;2024-03-02T09:29:01;101550.53;;;-3.77;64.63
59487;BME280;45298;54.918;73.504;2024-03-02T09:31:30;101552.13;;;-3.84;64.34
59487;BME280;45298;54.918;73.504;2024-03-02T09:33:59;101525.66;;;-4.07;64.34
59487;BME280;45298;54.918;73.504;2024-03-02T09:36:28;101546.13;;;-3.80;64.31
59487;BME280;45298;54.918;73.504;2024-03-02T09:38:57;101544.50;;;-3.75;64.48
59487;BME280;45298;54.918;73.504;2024-03-02T09:41:25;101524.84;;;-3.65;64.73
59487;BME280;45298;54.918;73.504;2024-03-02T09:43:55;101550.09;;;-3.56;64.69
59487;BME280;45298;54.918;73.504;2024-03-02T09:46:24;101565.56;;;-3.59;64.61
59487;BME280;45298;54.918;73.504;2024-03-02T09:48:53;101542.84;;;-3.73;64.50
59487;BME280;45298;54.918;73.504;2024-03-02T09:51:23;101525.22;;;-3.89;64.67
59487;BME280;45298;54.918;73.504;2024-03-02T09:53:52;101548.88;;;-3.72;64.96
59487;BME280;45298;54.918;73.504;2024-03-02T09:56:29;101549.69;;;-3.75;64.82
59487;BME280;45298;54.918;73.504;2024-03-02T09:58:59;101555.66;;;-3.79;64.72
59487;BME280;45298;54.918;73.504;2024-03-02T10:01:28;101558.19;;;-3.82;64.88
59487;BME280;45298;54.918;73.504;2024-03-02T10:04:00;101551.00;;;-3.96;65.07
59487;BME280;45298;54.918;73.504;2024-03-02T10:06:30;101561.44;;;-3.92;65.28
59487;BME280;45298;54.918;73.504;2024-03-02T10:08:59;101558.91;;;-3.89;65.72
59487;BME280;45298;54.918;73.504;2024-03-02T10:11:30;101562.44;;;-3.86;65.48
59487;BME280;45298;54.918;73.504;2024-03-02T10:14:10;101563.19;;;-3.91;65.71
59487;BME280;45298;54.918;73.504;2024-03-02T10:16:41;101563.81;;;-4.02;65.42
59487;BME280;45298;54.918;73.504;2024-03-02T10:19:23;101554.31;;;-4.03;65.50
59487;BME280;45298;54.918;73.504;2024-03-02T10:21:55;101548.91;;;-4.11;65.62
59487;BME280;45298;54.918;73.504;2024-03-02T10:24:40;101567.94;;;-4.10;66.38
59487;BME280;45298;54.918;73.504;2024-03-02T10:27:22;101561.16;;;-4.05;66.62
59487;BME280;45298;54.918;73.504;2024-03-02T10:29:52;101555.91;;;-4.08;66.41
59487;BME280;45298;54.918;73.504;2024-03-02T10:32:22;101559.34;;;-4.09;66.24
59487;BME280;45298;54.918;73.504;2024-03-02T10:34:51;101554.91;;;-4.15;66.27
59487;BME280;45298;54.918;73.504;2024-03-02T10:37:21;101558.19;;;-4.20;66.53
59487;BME280;45298;54.918;73.504;2024-03-02T10:39:50;101557.09;;;-4.32;66.52
59487;BME280;45298;54.918;73.504;2024-03-02T10:42:22;101558.75;;;-4.34;66.57
59487;BME280;45298;54.918;73.504;2024-03-02T10:44:51;101558.69;;;-4.37;66.82
59487;BME280;45298;54.918;73.504;2024-03-02T10:47:21;101578.56;;;-4.36;66.94
59487;BME280;45298;54.918;73.504;2024-03-02T10:49:52;101569.81;;;-4.41;67.21
59487;BME280;45298;54.918;73.504;2024-03-02T10:52:23;101541.59;;;-4.65;67.24
59487;BME280;45298;54.918;73.504;2024-03-02T10:54:52;101574.09;;;-4.43;67.44
59487;BME280;45298;54.918;73.504;2024-03-02T10:57:22;101559.00;;;-4.60;67.52
59487;BME280;45298;54.918;73.504;2024-03-02T10:59:56;101575.63;;;-4.51;68.09
59487;BME280;45298;54.918;73.504;2024-03-02T11:02:30;101567.09;;;-4.47;67.94
59487;BME280;45298;54.918;73.504;2024-03-02T11:05:03;101573.00;;;-4.53;67.66
59487;BME280;45298;54.918;73.504;2024-03-02T11:07:38;101573.78;;;-4.56;68.18
59487;BME280;45298;54.918;73.504;2024-03-02T11:10:08;101568.56;;;-4.57;68.46
59487;BME280;45298;54.918;73.504;2024-03-02T11:12:56;101574.63;;;-4.57;68.28
59487;BME280;45298;54.918;73.504;2024-03-02T11:15:29;101582.47;;;-4.53;68.41
59487;BME280;45298;54.918;73.504;2024-03-02T11:17:59;101571.00;;;-4.63;68.23
59487;BME280;45298;54.918;73.504;2024-03-02T11:20:29;101577.19;;;-4.58;68.50
59487;BME280;45298;54.918;73.504;2024-03-02T11:23:07;101573.56;;;-4.65;68.79
59487;BME280;45298;54.918;73.504;2024-03-02T11:25:36;101584.47;;;-4.77;68.82
59487;BME280;45298;54.918;73.504;2024-03-02T11:28:06;101571.34;;;-4.84;69.16
59487;BME280;45298;54.918;73.504;2024-03-02T11:33:07;101569.34;;;-4.95;69.74
59487;BME280;45298;54.918;73.504;2024-03-02T11:35:44;101580.41;;;-5.01;69.99
59487;BME280;45298;54.918;73.504;2024-03-02T11:38:36;101548.78;;;-5.22;69.75
59487;BME280;45298;54.918;73.504;2024-03-02T11:41:08;101577.50;;;-5.13;69.80
59487;BME280;45298;54.918;73.504;2024-03-02T11:43:41;101580.00;;;-5.16;70.39
59487;BME280;45298;54.918;73.504;2024-03-02T11:46:12;101570.19;;;-5.28;70.59
59487;BME280;45298;54.918;73.504;2024-03-02T11:48:43;101580.34;;;-5.34;70.78
59487;BME280;45298;54.918;73.504;2024-03-02T11:51:14;101574.19;;;-5.39;70.87
59487;BME280;45298;54.918;73.504;2024-03-02T11:53:43;101577.47;;;-5.45;70.87
59487;BME280;45298;54.918;73.504;2024-03-02T11:56:14;101578.34;;;-5.44;70.58
59487;BME280;45298;54.918;73.504;2024-03-02T11:58:43;101544.97;;;-5.67;71.01
59487;BME280;45298;54.918;73.504;2024-03-02T12:01:13;101587.66;;;-5.51;71.05
59487;BME280;45298;54.918;73.504;2024-03-02T12:03:42;101575.28;;;-5.62;71.41
59487;BME280;45298;54.918;73.504;2024-03-02T12:06:11;101584.84;;;-5.59;71.33
59487;BME280;45298;54.918;73.504;2024-03-02T12:08:42;101587.47;;;-5.57;71.86
59487;BME280;45298;54.918;73.504;2024-03-02T12:11:13;101577.91;;;-5.60;70.77
59487;BME280;45298;54.918;73.504;2024-03-02T12:13:52;101581.25;;;-5.64;72.02
59487;BME280;45298;54.918;73.504;2024-03-02T12:16:25;101577.63;;;-5.69;71.86
59487;BME280;45298;54.918;73.504;2024-03-02T12:18:54;101578.38;;;-5.73;71.63
59487;BME280;45298;54.918;73.504;2024-03-02T12:21:23;101578.25;;;-5.78;72.17
59487;BME280;45298;54.918;73.504;2024-03-02T12:23:52;101570.91;;;-5.93;72.28
59487;BME280;45298;54.918;73.504;2024-03-02T12:26:22;101575.22;;;-5.92;72.51
59487;BME280;45298;54.918;73.504;2024-03-02T12:28:51;101574.00;;;-6.05;72.04
59487;BME280;45298;54.918;73.504;2024-03-02T12:31:24;101587.00;;;-6.03;72.49
59487;BME280;45298;54.918;73.504;2024-03-02T12:33:54;101582.34;;;-6.14;72.18
59487;BME280;45298;54.918;73.504;2024-03-02T12:36:25;101589.25;;;-6.14;72.31
59487;BME280;45298;54.918;73.504;2024-03-02T12:38:56;101555.94;;;-6.32;73.39
59487;BME280;45298;54.918;73.504;2024-03-02T12:41:25;101575.06;;;-6.27;72.82
59487;BME280;45298;54.918;73.504;2024-03-02T12:43:56;101579.44;;;-6.25;73.09
59487;BME280;45298;54.918;73.504;2024-03-02T12:46:25;101574.22;;;-6.26;72.99
59487;BME280;45298;54.918;73.504;2024-03-02T12:48:53;101578.50;;;-6.27;72.45
59487;BME280;45298;54.918;73.504;2024-03-02T12:51:22;101577.63;;;-6.27;72.86
59487;BME280;45298;54.918;73.504;2024-03-02T12:53:55;101586.41;;;-6.22;73.16
59487;BME280;45298;54.918;73.504;2024-03-02T12:56:25;101581.97;;;-6.26;73.21
59487;BME280;45298;54.918;73.504;2024-03-02T12:58:55;101574.03;;;-6.32;73.24
59487;BME280;45298;54.918;73.504;2024-03-02T13:01:24;101567.84;;;-6.38;72.76